createdAt,value
2017-08-28T00:00:08.981Z,7.03
2017-08-28T00:02:36.314Z,7.00
2017-08-28T00:05:03.661Z,7.20
2017-08-28T00:07:30.985Z,6.70
2017-08-28T00:09:58.304Z,6.87
2017-08-28T00:12:25.637Z,7.40
2017-08-28T00:14:53.113Z,7.53
2017-08-28T00:17:20.436Z,6.73
2017-08-28T00:19:47.733Z,7.13
2017-08-28T00:22:15.069Z,6.57
2017-08-28T00:24:42.367Z,7.10
2017-08-28T00:27:09.683Z,6.90
2017-08-28T00:29:37.019Z,6.70
2017-08-28T00:32:04.346Z,7.00
2017-08-28T00:34:31.650Z,7.20
2017-08-28T00:36:59.002Z,7.00
2017-08-28T00:39:26.312Z,6.50
2017-08-28T00:41:53.630Z,6.70
2017-08-28T00:44:20.925Z,6.70
2017-08-28T00:46:48.282Z,7.20
2017-08-28T00:49:15.577Z,6.43
2017-08-28T00:51:42.899Z,6.53
2017-08-28T00:54:10.184Z,6.90
2017-08-28T00:56:37.508Z,6.77
2017-08-28T00:59:04.847Z,6.97
2017-08-28T01:01:32.167Z,7.50
2017-08-28T01:03:59.469Z,7.30
2017-08-28T01:06:26.795Z,6.50
2017-08-28T01:08:54.112Z,7.03
2017-08-28T01:11:21.468Z,7.40
2017-08-28T01:13:48.824Z,7.97
2017-08-28T01:16:16.283Z,7.50
2017-08-28T01:18:43.587Z,6.50
2017-08-28T01:21:10.914Z,7.30
2017-08-28T01:23:38.677Z,6.90
2017-08-28T01:26:06.017Z,6.90
2017-08-28T01:28:33.330Z,6.70
2017-08-28T01:31:00.629Z,7.30
2017-08-28T01:33:27.964Z,7.30
2017-08-28T01:35:55.287Z,7.77
2017-08-28T01:38:22.925Z,6.90
2017-08-28T01:40:50.399Z,7.77
2017-08-28T01:43:17.748Z,7.00
2017-08-28T01:45:45.045Z,8.30
2017-08-28T01:48:12.373Z,7.70
2017-08-28T01:50:39.675Z,7.17
2017-08-28T01:53:06.990Z,7.40
2017-08-28T01:55:34.312Z,8.10
2017-08-28T01:58:01.656Z,7.97
2017-08-28T02:00:28.980Z,7.10
2017-08-28T02:02:56.291Z,7.70
2017-08-28T02:05:23.606Z,7.67
2017-08-28T02:07:50.920Z,7.50
2017-08-28T02:10:18.295Z,7.47
2017-08-28T02:12:45.603Z,7.23
2017-08-28T02:15:13.361Z,7.20
2017-08-28T02:17:40.686Z,8.20
2017-08-28T02:20:08.011Z,8.17
2017-08-28T02:22:35.315Z,8.90
2017-08-28T02:25:02.624Z,7.73
2017-08-28T02:27:29.953Z,8.33
2017-08-28T02:29:57.311Z,7.07
2017-08-28T02:32:24.630Z,7.57
2017-08-28T02:34:51.951Z,7.30
2017-08-28T02:37:19.251Z,8.20
2017-08-28T02:39:46.565Z,8.17
2017-08-28T02:42:13.899Z,7.83
2017-08-28T02:44:41.230Z,8.00
2017-08-28T02:47:08.795Z,8.50
2017-08-28T02:49:36.099Z,7.83
2017-08-28T02:52:03.400Z,8.33
2017-08-28T02:54:30.703Z,7.77
2017-08-28T02:56:58.021Z,8.23
2017-08-28T02:59:25.330Z,7.07
2017-08-28T03:01:52.646Z,8.00
2017-08-28T03:04:19.965Z,8.90
2017-08-28T03:06:47.300Z,8.27
2017-08-28T03:09:14.607Z,7.70
2017-08-28T03:11:41.925Z,8.27
2017-08-28T03:14:09.250Z,8.43
2017-08-28T03:16:36.595Z,9.43
2017-08-28T03:19:03.911Z,8.63
2017-08-28T03:21:31.244Z,7.47
2017-08-28T03:23:59.509Z,9.00
2017-08-28T03:26:26.839Z,8.20
2017-08-28T03:28:54.151Z,7.60
2017-08-28T03:31:21.491Z,7.87
2017-08-28T03:33:48.814Z,8.27
2017-08-28T03:36:16.170Z,9.60
2017-08-28T03:38:43.459Z,9.30
2017-08-28T03:41:10.845Z,9.40
2017-08-28T03:43:38.142Z,9.67
2017-08-28T03:46:05.471Z,9.43
2017-08-28T03:48:32.778Z,8.67
2017-08-28T03:51:00.106Z,8.87
2017-08-28T03:53:27.410Z,9.40
2017-08-28T03:55:54.742Z,9.70
2017-08-28T03:58:22.066Z,8.27
2017-08-28T04:00:49.426Z,9.40
2017-08-28T04:03:16.754Z,8.43
2017-08-28T04:05:44.068Z,9.70
2017-08-28T04:08:11.393Z,10.33
2017-08-28T04:10:38.815Z,10.63
2017-08-28T04:13:06.157Z,10.30
2017-08-28T04:15:33.464Z,9.50
2017-08-28T04:18:00.785Z,9.07
2017-08-28T04:20:28.082Z,9.40
2017-08-28T04:22:55.424Z,9.37
2017-08-28T04:25:22.739Z,9.47
2017-08-28T04:27:50.063Z,8.33
2017-08-28T04:30:17.362Z,9.90
2017-08-28T04:32:44.682Z,9.80
2017-08-28T04:35:11.986Z,9.27
2017-08-28T04:37:39.330Z,9.27
2017-08-28T04:40:06.650Z,9.83
2017-08-28T04:42:33.966Z,9.63
2017-08-28T04:45:01.277Z,10.10
2017-08-28T04:47:28.626Z,9.47
2017-08-28T04:49:55.968Z,8.70
2017-08-28T04:52:23.282Z,9.83
2017-08-28T04:54:50.623Z,9.63
2017-08-28T04:57:17.927Z,10.33
2017-08-28T04:59:45.256Z,9.77
2017-08-28T05:02:12.562Z,9.17
2017-08-28T05:04:39.901Z,10.70
2017-08-28T05:07:07.232Z,10.60
2017-08-28T05:09:34.726Z,9.23
2017-08-28T05:12:02.027Z,9.00
2017-08-28T05:14:29.410Z,10.00
2017-08-28T05:16:56.706Z,9.93
2017-08-28T05:19:24.066Z,9.40
2017-08-28T05:21:51.378Z,8.73
2017-08-28T05:24:18.701Z,9.00
2017-08-28T05:26:46.031Z,9.73
2017-08-28T05:29:13.617Z,9.83
2017-08-28T05:31:40.990Z,9.57
2017-08-28T05:34:08.303Z,9.20
2017-08-28T05:36:35.654Z,9.80
2017-08-28T05:39:02.941Z,9.27
2017-08-28T05:41:30.265Z,9.57
2017-08-28T05:43:57.579Z,10.30
2017-08-28T05:46:24.927Z,9.97
2017-08-28T05:48:52.244Z,10.07
2017-08-28T05:51:19.625Z,9.90
2017-08-28T05:53:46.945Z,9.27
2017-08-28T05:56:14.283Z,9.10
2017-08-28T05:58:41.603Z,9.50
2017-08-28T06:01:09.071Z,9.90
2017-08-28T06:03:36.391Z,9.70
2017-08-28T06:06:03.753Z,10.00
2017-08-28T06:08:31.083Z,9.33
2017-08-28T06:10:58.733Z,9.63
2017-08-28T06:13:26.103Z,9.30
2017-08-28T06:15:53.479Z,9.10
2017-08-28T06:18:20.768Z,9.33
2017-08-28T06:20:48.091Z,9.60
2017-08-28T06:23:15.442Z,8.87
2017-08-28T06:25:42.766Z,9.33
2017-08-28T06:28:11.045Z,9.20
2017-08-28T06:30:38.374Z,9.30
2017-08-28T06:33:05.741Z,9.90
2017-08-28T06:35:33.083Z,10.40
2017-08-28T06:38:00.406Z,9.30
2017-08-28T06:40:27.747Z,9.30
2017-08-28T06:42:55.096Z,9.17
2017-08-28T06:45:22.421Z,9.40
2017-08-28T06:47:49.757Z,9.63
2017-08-28T06:50:17.066Z,9.60
2017-08-28T06:52:44.373Z,9.50
2017-08-28T06:55:11.677Z,9.73
2017-08-28T06:57:39.028Z,10.10
2017-08-28T07:00:06.362Z,9.50
2017-08-28T07:02:33.731Z,9.10
2017-08-28T07:05:01.059Z,9.00
2017-08-28T07:07:28.482Z,9.40
2017-08-28T07:09:55.773Z,9.03
2017-08-28T07:12:23.102Z,8.80
2017-08-28T07:14:50.447Z,9.00
2017-08-28T07:17:17.757Z,9.10
2017-08-28T07:19:45.107Z,8.37
2017-08-28T07:22:12.467Z,9.03
2017-08-28T07:24:39.877Z,7.90
2017-08-28T07:27:07.262Z,8.13
2017-08-28T07:29:34.569Z,9.13
2017-08-28T07:32:02.025Z,8.07
2017-08-28T07:34:29.429Z,7.77
2017-08-28T07:36:56.746Z,7.37
2017-08-28T07:39:24.074Z,7.50
2017-08-28T07:41:51.391Z,6.70
2017-08-28T07:44:18.751Z,7.17
2017-08-28T07:46:46.157Z,7.60
2017-08-28T07:49:13.509Z,6.73
2017-08-28T07:51:40.872Z,6.67
2017-08-28T07:54:08.185Z,5.80
2017-08-28T07:56:35.523Z,5.57
2017-08-28T07:59:02.895Z,6.00
2017-08-28T08:01:30.223Z,5.80
2017-08-28T08:03:57.870Z,5.33
2017-08-28T08:06:25.222Z,5.63
2017-08-28T08:08:52.570Z,6.27
2017-08-28T08:11:19.920Z,5.70
2017-08-28T08:13:47.214Z,6.20
2017-08-28T08:16:14.630Z,5.97
2017-08-28T08:18:41.979Z,5.50
2017-08-28T08:21:09.304Z,5.50
2017-08-28T08:23:36.624Z,5.90
2017-08-28T08:26:03.935Z,5.13
2017-08-28T08:28:31.305Z,4.17
2017-08-28T08:30:58.627Z,3.77
2017-08-28T08:33:31.663Z,3.43
2017-08-28T08:35:59.065Z,3.87
2017-08-28T08:38:26.390Z,4.27
2017-08-28T08:40:53.859Z,3.70
2017-08-28T08:43:21.145Z,3.83
2017-08-28T08:45:48.495Z,3.87
2017-08-28T08:48:15.843Z,3.60
2017-08-28T08:50:43.164Z,3.80
2017-08-28T08:53:10.465Z,4.10
2017-08-28T08:55:37.796Z,3.70
2017-08-28T08:58:06.019Z,3.50
2017-08-28T09:00:33.321Z,3.63
2017-08-28T09:03:00.770Z,3.83
2017-08-28T09:05:28.081Z,3.70
2017-08-28T09:07:55.396Z,3.90
2017-08-28T09:10:22.728Z,3.63
2017-08-28T09:12:50.056Z,3.20
2017-08-28T09:15:23.139Z,3.53
2017-08-28T09:17:50.455Z,3.50
2017-08-28T09:20:17.810Z,3.20
2017-08-28T09:22:45.116Z,3.10
2017-08-28T09:25:12.707Z,3.60
2017-08-28T09:27:40.035Z,3.33
2017-08-28T09:30:07.345Z,3.17
2017-08-28T09:32:34.675Z,3.60
2017-08-28T09:35:01.983Z,3.17
2017-08-28T09:37:29.318Z,3.40
2017-08-28T09:39:56.655Z,3.10
2017-08-28T09:42:23.987Z,3.23
2017-08-28T09:44:51.282Z,2.93
2017-08-28T09:47:18.591Z,3.40
2017-08-28T09:49:45.909Z,3.00
2017-08-28T09:52:13.217Z,2.80
2017-08-28T09:54:40.537Z,2.93
2017-08-28T09:57:08.142Z,2.70
2017-08-28T09:59:35.456Z,2.90
2017-08-28T10:02:02.749Z,2.50
2017-08-28T10:04:30.086Z,3.07
2017-08-28T10:06:57.368Z,2.93
2017-08-28T10:09:24.700Z,2.80
2017-08-28T10:11:51.989Z,2.40
2017-08-28T10:14:19.327Z,2.90
2017-08-28T10:16:46.681Z,2.47
2017-08-28T10:19:14.071Z,2.67
2017-08-28T10:21:41.575Z,2.57
2017-08-28T10:24:09.238Z,2.63
2017-08-28T10:26:36.150Z,2.90
2017-08-28T10:29:03.474Z,3.20
2017-08-28T10:31:30.835Z,2.70
2017-08-28T10:33:58.258Z,2.60
2017-08-28T10:36:25.572Z,2.67
2017-08-28T10:38:52.967Z,2.63
2017-08-28T10:41:20.302Z,2.20
2017-08-28T10:43:47.627Z,2.50
2017-08-28T10:46:14.995Z,2.50
2017-08-28T10:48:42.301Z,2.50
2017-08-28T10:51:09.634Z,2.30
2017-08-28T10:53:36.951Z,2.80
2017-08-28T10:56:04.277Z,2.37
2017-08-28T10:58:31.572Z,2.50
2017-08-28T11:00:58.882Z,2.43
2017-08-28T11:03:26.177Z,2.30
2017-08-28T11:05:53.493Z,2.07
2017-08-28T11:08:20.806Z,2.10
2017-08-28T11:10:48.123Z,2.07
2017-08-28T11:13:15.459Z,1.90
2017-08-28T11:15:42.786Z,1.80
2017-08-28T11:18:10.121Z,2.17
2017-08-28T11:20:37.425Z,2.20
2017-08-28T11:23:04.760Z,2.30
2017-08-28T11:25:32.138Z,2.30
2017-08-28T11:27:59.503Z,2.13
2017-08-28T11:30:26.813Z,2.43
2017-08-28T11:32:54.280Z,2.40
2017-08-28T11:35:21.590Z,2.30
2017-08-28T11:37:48.939Z,2.03
2017-08-28T11:40:16.295Z,2.40
2017-08-28T11:42:43.629Z,2.00
2017-08-28T11:45:11.062Z,2.30
2017-08-28T11:47:38.440Z,1.90
2017-08-28T11:50:05.744Z,2.03
2017-08-28T11:52:33.210Z,2.13
2017-08-28T11:55:00.770Z,2.10
2017-08-28T11:57:28.166Z,1.90
2017-08-28T11:59:55.467Z,2.10
2017-08-28T12:02:22.777Z,2.10
2017-08-28T12:04:50.129Z,2.03
2017-08-28T12:07:17.453Z,2.30
2017-08-28T12:09:44.846Z,2.10
2017-08-28T12:12:12.251Z,1.97
2017-08-28T12:14:39.567Z,2.30
2017-08-28T12:17:06.901Z,2.17
2017-08-28T12:19:34.242Z,2.27
2017-08-28T12:22:01.576Z,2.10
2017-08-28T12:24:28.897Z,2.00
2017-08-28T12:26:56.215Z,1.80
2017-08-28T12:29:23.528Z,1.90
2017-08-28T12:31:50.825Z,2.00
2017-08-28T12:34:18.132Z,1.90
2017-08-28T12:36:45.425Z,2.20
2017-08-28T12:39:12.775Z,2.00
2017-08-28T12:41:40.105Z,2.57
2017-08-28T12:44:07.410Z,2.43
2017-08-28T12:46:34.727Z,2.33
2017-08-28T12:49:02.042Z,2.10
2017-08-28T12:51:29.381Z,2.20
2017-08-28T12:53:56.726Z,2.23
2017-08-28T12:56:24.036Z,2.20
2017-08-28T12:58:51.356Z,2.20
2017-08-28T13:01:18.652Z,2.20
2017-08-28T13:03:45.962Z,1.90
2017-08-28T13:06:13.265Z,2.10
2017-08-28T13:08:40.562Z,2.10
2017-08-28T13:11:07.873Z,2.10
2017-08-28T13:13:35.165Z,2.20
2017-08-28T13:16:02.813Z,2.53
2017-08-28T13:18:30.115Z,2.30
2017-08-28T13:20:57.417Z,2.03
2017-08-28T13:23:24.704Z,2.20
2017-08-28T13:25:52.054Z,1.80
2017-08-28T13:28:19.387Z,1.90
2017-08-28T13:30:46.698Z,1.70
2017-08-28T13:33:14.284Z,2.00
2017-08-28T13:35:41.930Z,1.73
2017-08-28T13:38:09.675Z,2.10
2017-08-28T13:40:37.130Z,1.90
2017-08-28T13:43:04.456Z,2.23
2017-08-28T13:45:31.754Z,2.13
2017-08-28T13:47:59.340Z,2.00
2017-08-28T13:50:26.665Z,1.60
2017-08-28T13:52:53.993Z,2.10
2017-08-28T13:55:21.471Z,1.77
2017-08-28T13:57:48.794Z,2.20
2017-08-28T14:00:16.100Z,2.00
2017-08-28T14:02:43.976Z,2.20
2017-08-28T14:05:11.297Z,1.90
2017-08-28T14:07:38.606Z,2.00
2017-08-28T14:10:05.952Z,1.70
2017-08-28T14:12:33.290Z,2.07
2017-08-28T14:15:00.612Z,2.20
2017-08-28T14:17:27.967Z,2.10
2017-08-28T14:19:55.285Z,1.93
2017-08-28T14:22:22.608Z,1.90
2017-08-28T14:24:49.909Z,1.83
2017-08-28T14:27:17.230Z,1.80
2017-08-28T14:29:44.563Z,1.90
2017-08-28T14:32:11.901Z,2.07
2017-08-28T14:34:39.551Z,1.97
2017-08-28T14:37:06.840Z,2.10
2017-08-28T14:39:34.163Z,1.77
2017-08-28T14:42:01.466Z,2.40
2017-08-28T14:44:28.828Z,1.97
2017-08-28T14:46:56.133Z,2.00
2017-08-28T14:49:23.486Z,2.20
2017-08-28T14:51:50.782Z,2.00
2017-08-28T14:54:18.098Z,1.80
2017-08-28T14:56:45.407Z,2.67
2017-08-28T14:59:12.726Z,3.10
2017-08-28T15:01:40.043Z,2.20
2017-08-28T15:04:07.370Z,2.00
2017-08-28T15:06:34.675Z,2.30
2017-08-28T15:09:01.993Z,1.80
2017-08-28T15:11:29.327Z,2.20
2017-08-28T15:13:56.634Z,2.27
2017-08-28T15:16:23.942Z,1.90
2017-08-28T15:18:51.242Z,1.77
2017-08-28T15:21:18.551Z,1.97
2017-08-28T15:23:45.866Z,2.63
2017-08-28T15:26:13.194Z,1.80
2017-08-28T15:28:40.512Z,2.43
2017-08-28T15:31:07.822Z,1.90
2017-08-28T15:33:35.110Z,1.75
2017-08-28T15:36:02.434Z,2.33
2017-08-28T15:38:29.755Z,2.10
2017-08-28T15:40:57.069Z,1.90
2017-08-28T15:43:24.660Z,2.00
2017-08-28T15:45:51.978Z,1.80
2017-08-28T15:48:19.278Z,1.80
2017-08-28T15:50:46.617Z,2.33
2017-08-28T15:53:13.947Z,2.22
2017-08-28T15:55:41.258Z,2.50
2017-08-28T15:58:08.557Z,2.15
2017-08-28T16:00:36.223Z,2.25
2017-08-28T16:03:03.522Z,1.80
2017-08-28T16:05:30.846Z,2.10
2017-08-28T16:07:58.153Z,2.20
2017-08-28T16:10:25.462Z,1.90
2017-08-28T16:12:52.788Z,1.80
2017-08-28T16:15:20.131Z,1.83
2017-08-28T16:17:47.475Z,2.00
2017-08-28T16:20:14.803Z,2.40
2017-08-28T16:22:42.120Z,2.03
2017-08-28T16:25:09.714Z,2.13
2017-08-28T16:27:37.042Z,2.03
2017-08-28T16:30:04.359Z,2.20
2017-08-28T16:32:31.670Z,2.40
2017-08-28T16:34:58.960Z,1.83
2017-08-28T16:37:26.328Z,4.00
2017-08-28T16:39:53.617Z,4.47
2017-08-28T16:42:20.931Z,2.30
2017-08-28T16:44:48.221Z,2.10
2017-08-28T16:47:15.529Z,2.00
2017-08-28T16:49:42.824Z,2.25
2017-08-28T16:52:10.126Z,2.05
2017-08-28T16:54:37.446Z,2.08
2017-08-28T16:57:04.730Z,2.00
2017-08-28T16:59:32.057Z,1.87
2017-08-28T17:01:59.357Z,2.70
2017-08-28T17:04:26.673Z,1.93
2017-08-28T17:06:53.982Z,2.20
2017-08-28T17:09:21.303Z,2.20
2017-08-28T17:11:48.610Z,2.23
2017-08-28T17:14:15.923Z,2.00
2017-08-28T17:16:43.232Z,2.00
2017-08-28T17:19:10.551Z,2.13
2017-08-28T17:21:37.847Z,2.47
2017-08-28T17:24:05.174Z,2.73
2017-08-28T17:26:32.497Z,2.33
2017-08-28T17:28:59.805Z,2.43
2017-08-28T17:31:27.097Z,2.20
2017-08-28T17:33:54.455Z,2.30
2017-08-28T17:36:21.780Z,2.70
2017-08-28T17:38:49.105Z,2.20
2017-08-28T17:41:16.576Z,2.30
2017-08-28T17:43:43.898Z,2.60
2017-08-28T17:46:11.251Z,2.50
2017-08-28T17:48:38.585Z,2.30
2017-08-28T17:51:06.095Z,2.60
2017-08-28T17:53:33.382Z,2.63
2017-08-28T17:56:00.717Z,3.20
2017-08-28T17:58:28.048Z,2.90
2017-08-28T18:00:55.450Z,2.73
2017-08-28T18:03:22.741Z,2.80
2017-08-28T18:05:50.078Z,3.07
2017-08-28T18:08:17.415Z,2.70
2017-08-28T18:10:44.772Z,3.00
2017-08-28T18:13:12.089Z,3.50
2017-08-28T18:15:39.399Z,3.10
2017-08-28T18:18:08.235Z,3.30
2017-08-28T18:20:35.584Z,3.30
2017-08-28T18:23:02.890Z,4.87
2017-08-28T18:25:30.197Z,3.73
2017-08-28T18:27:57.804Z,3.10
2017-08-28T18:30:25.129Z,3.10
2017-08-28T18:32:52.688Z,3.50
2017-08-28T18:35:20.019Z,4.13
2017-08-28T18:37:47.374Z,3.80
2017-08-28T18:40:14.702Z,4.27
2017-08-28T18:42:42.052Z,3.70
2017-08-28T18:45:09.386Z,4.57
2017-08-28T18:47:36.735Z,3.87
2017-08-28T18:50:04.063Z,3.40
2017-08-28T18:52:31.405Z,3.70
2017-08-28T18:54:58.726Z,3.93
2017-08-28T18:57:26.079Z,3.77
2017-08-28T18:59:53.387Z,3.67
2017-08-28T19:02:20.712Z,4.00
2017-08-28T19:04:48.024Z,4.10
2017-08-28T19:07:15.339Z,4.40
2017-08-28T19:09:42.658Z,5.30
2017-08-28T19:12:10.229Z,4.33
2017-08-28T19:14:37.589Z,4.37
2017-08-28T19:17:05.066Z,5.13
2017-08-28T19:19:32.365Z,5.47
2017-08-28T19:21:59.741Z,5.00
2017-08-28T19:24:27.038Z,5.23
2017-08-28T19:26:54.398Z,5.07
2017-08-28T19:29:21.726Z,6.10
2017-08-28T19:31:49.030Z,5.93
2017-08-28T19:34:17.465Z,5.40
2017-08-28T19:36:44.757Z,5.80
2017-08-28T19:39:12.069Z,6.10
2017-08-28T19:41:39.462Z,5.93
2017-08-28T19:44:06.825Z,6.27
2017-08-28T19:46:34.149Z,5.80
2017-08-28T19:49:01.465Z,6.00
2017-08-28T19:51:28.768Z,5.70
2017-08-28T19:53:56.098Z,5.40
2017-08-28T19:56:23.395Z,5.97
2017-08-28T19:58:50.735Z,5.30
2017-08-28T20:01:18.042Z,5.63
2017-08-28T20:03:45.391Z,5.80
2017-08-28T20:06:13.014Z,5.83
2017-08-28T20:08:40.327Z,5.63
2017-08-28T20:11:07.625Z,5.53
2017-08-28T20:13:35.774Z,5.73
2017-08-28T20:16:03.108Z,5.77
2017-08-28T20:18:30.418Z,5.73
2017-08-28T20:20:57.710Z,6.27
2017-08-28T20:23:25.033Z,5.80
2017-08-28T20:25:52.373Z,7.07
2017-08-28T20:28:19.727Z,6.80
2017-08-28T20:30:47.031Z,5.80
2017-08-28T20:33:14.370Z,7.00
2017-08-28T20:35:41.724Z,6.10
2017-08-28T20:38:09.030Z,6.53
2017-08-28T20:40:36.353Z,6.13
2017-08-28T20:43:03.675Z,6.40
2017-08-28T20:45:30.980Z,6.40
2017-08-28T20:47:58.293Z,6.43
2017-08-28T20:50:25.626Z,6.43
2017-08-28T20:52:52.978Z,6.60
2017-08-28T20:55:20.296Z,6.77
2017-08-28T20:57:47.623Z,6.17
2017-08-28T21:00:14.962Z,8.10
2017-08-28T21:02:42.516Z,7.23
2017-08-28T21:05:09.854Z,7.03
2017-08-28T21:07:37.191Z,6.87
2017-08-28T21:10:04.552Z,7.47
2017-08-28T21:12:31.890Z,6.50
2017-08-28T21:14:59.235Z,7.67
2017-08-28T21:17:26.709Z,7.33
2017-08-28T21:19:54.024Z,7.23
2017-08-28T21:22:21.390Z,7.53
2017-08-28T21:24:48.699Z,7.70
2017-08-28T21:27:16.018Z,7.60
2017-08-28T21:29:43.368Z,7.20
2017-08-28T21:32:10.697Z,7.20
2017-08-28T21:34:38.352Z,7.43
2017-08-28T21:37:05.710Z,7.20
2017-08-28T21:39:33.052Z,8.10
2017-08-28T21:42:00.682Z,8.00
2017-08-28T21:44:28.018Z,7.50
2017-08-28T21:46:55.369Z,8.07
2017-08-28T21:49:22.671Z,7.70
2017-08-28T21:51:49.985Z,8.10
2017-08-28T21:54:17.291Z,7.60
2017-08-28T21:56:44.633Z,7.23
2017-08-28T21:59:11.948Z,7.83
2017-08-28T22:01:39.271Z,7.80
2017-08-28T22:04:06.590Z,8.10
2017-08-28T22:06:34.255Z,8.50
2017-08-28T22:09:01.541Z,9.13
2017-08-28T22:11:28.911Z,8.07
2017-08-28T22:13:56.213Z,9.00
2017-08-28T22:16:23.559Z,9.80
2017-08-28T22:18:50.904Z,8.77
2017-08-28T22:21:18.201Z,9.07
2017-08-28T22:23:45.542Z,8.30
2017-08-28T22:26:12.840Z,8.13
2017-08-28T22:28:40.170Z,8.53
2017-08-28T22:31:07.514Z,9.27
2017-08-28T22:33:34.869Z,9.07
2017-08-28T22:36:02.203Z,10.03
2017-08-28T22:38:29.524Z,8.83
2017-08-28T22:40:56.894Z,10.30
2017-08-28T22:43:24.246Z,9.40
2017-08-28T22:45:51.566Z,9.77
2017-08-28T22:48:18.892Z,12.23
2017-08-28T22:50:46.234Z,10.90
2017-08-28T22:53:13.620Z,10.67
2017-08-28T22:55:40.909Z,10.57
2017-08-28T22:58:08.957Z,10.57
2017-08-28T23:00:36.295Z,10.40
2017-08-28T23:03:03.603Z,10.20
2017-08-28T23:05:30.967Z,10.93
2017-08-28T23:07:58.271Z,10.97
2017-08-28T23:10:25.585Z,11.50
2017-08-28T23:12:52.914Z,10.83
2017-08-28T23:15:20.273Z,12.20
2017-08-28T23:17:47.597Z,10.70
2017-08-28T23:20:14.971Z,11.50
2017-08-28T23:22:42.283Z,12.47
2017-08-28T23:25:09.668Z,10.70
2017-08-28T23:27:36.974Z,10.57
2017-08-28T23:30:04.323Z,11.03
2017-08-28T23:32:31.650Z,10.90
2017-08-28T23:34:59.021Z,11.50
2017-08-28T23:37:26.330Z,10.77
2017-08-28T23:39:53.656Z,11.00
2017-08-28T23:42:20.988Z,11.40
2017-08-28T23:44:48.302Z,12.23
2017-08-28T23:47:15.636Z,11.60
2017-08-28T23:49:42.932Z,11.57
2017-08-28T23:52:10.286Z,10.63
2017-08-28T23:54:37.613Z,12.20
2017-08-28T23:57:04.982Z,12.03
2017-08-28T23:59:32.289Z,12.27
